Baltimore, Maryland
Traffic Map
Current Weather Conditions
Baltimore, Maryland
Broken Clouds
Broken Clouds
44°
Feels Like: 38°
Wind Chill: 38° Ceiling: 6000
Heat Index: 44° Visibility: 10mi
Dew Point: 28° Wind: 12mph
Humidity: 53% Direction: 320° (NW)
Pressure: 30.03in Gusts: 0mph
Raw Report DataKBWI 271854Z 32010KT 10SM FEW037 BKN060 BKN250 07/M02 A3003 RMK AO2 SLP169 T00671022
Traffic Incident Summary
Active as of:
Severity:
Category:
InformationThere was an issue retrieving the traffic information for this location. Please try a different location or try again shortly.
Advertisements
Track Severe Weather on mobile